METAR Data
IDs: Format: Raw Decoded Include TAF

Data at: 1543 UTC 21 Sep 2018

KSNA 211453Z 25003KT 6SM BR BKN014 19/15 A2998 RMK AO2 SLP151 T01890150 53015
KSNA 211422Z 25003KT 6SM BR FEW014 BKN024 18/15 A2997 RMK AO2 T01830150
KSNA 211353Z 00000KT 6SM BR FEW024 19/15 A2996 RMK AO2 SLP144 T01890150
KSNA 211253Z 00000KT 6SM BR FEW014 SCT026 19/15 A2994 RMK AO2 SLP138 T01890150
KSNA 211235Z AUTO 00000KT 9SM FEW013 OVC026 19/15 A2994 RMK AO2 T01890150
KSNA 211153Z AUTO 00000KT 9SM OVC014 19/15 A2994 RMK AO2 SLP137 T01890150 10194 20183 55000
KSNA 211053Z AUTO 04003KT 10SM OVC014 19/15 A2994 RMK AO2 SLP136 T01890150
KSNA 210953Z AUTO 00000KT 10SM OVC013 19/15 A2993 RMK AO2 SLP135 T01890150
KSNA 210853Z AUTO 17003KT 10SM OVC013 19/15 A2994 RMK AO2 SLP137 T01890150 58000
KSNA 210753Z AUTO 06003KT 10SM OVC013 19/15 A2995 RMK AO2 SLP139 T01890150 402440178
KSNA 210716Z 12006KT 10SM OVC014 19/14 A2994 RMK AO2 T01890144
KSNA 210700Z 12005KT 10SM OVC015 19/14 A2994 RMK AO2 T01890144
KSNA 210653Z 12005KT 10SM BKN013 19/14 A2994 RMK AO2 SLP138 T01890144
KSNA 210600Z 12005KT 10SM BKN013 19/14 A2994 RMK AO2 T01890144
KSNA 210553Z 12005KT 10SM BKN015 19/15 A2994 RMK AO2 SLP138 LAST T01890150 10222 20189 51018
KSNA 210519Z 14004KT 10SM FEW009 FEW015 19/15 A2994 RMK AO2 T01890150
KSNA 210453Z 16004KT 10SM OVC031 19/15 A2993 RMK AO2 SLP135 T01940150
KSNA 210353Z 16005KT 9SM FEW015 19/15 A2991 RMK AO2 SLP128 T01940150
KSNA 210253Z COR 19007KT 10SM FEW015 19/15 A2989 RMK AO2 SLP120 T01940150 53017
KSNA 210153Z 19011KT 10SM FEW014 21/15 A2987 RMK AO2 SLP113 T02060150
KSNA 210053Z 21010KT 10SM FEW017 21/16 A2985 RMK AO2 SLP105 T02110156
KSNA 202353Z 20013KT 10SM FEW018 22/16 A2984 RMK AO2 SLP103 T02220156 10244 20222 55002
KSNA 202253Z 22012KT 10SM FEW021 23/16 A2984 RMK AO2 SLP102 T02280161
KSNA 202153Z 22009KT 10SM FEW023 23/16 A2984 RMK AO2 SLP102 T02330161
KSNA 202053Z 21011KT 10SM FEW040 24/16 A2985 RMK AO2 SLP105 T02390161 58005
KSNA 201953Z 22009KT 10SM FEW017 FEW045 23/16 A2985 RMK AO2 SLP108 T02330161
KSNA 201853Z 20007KT 10SM FEW045 24/16 A2986 RMK AO2 SLP109 T02390161
KSNA 201753Z COR 20005KT 10SM FEW018 FEW045 23/16 A2986 RMK AO2 SLP111 T02280156 10228 20183 51009
KSNA 201724Z VRB03KT 10SM FEW018 SCT045 22/16 A2986 RMK AO2 T02170156
KSNA 201653Z 00000KT 10SM BKN016 21/15 A2986 RMK AO2 SLP111 T02060150
KSNA 201553Z 09004KT 9SM OVC011 19/15 A2985 RMK AO2 SLP107 T01890150
KSNA 201453Z 10005KT 8SM OVC011 19/15 A2983 RMK AO2 SLP101 T01890150 53021
KSNA 201353Z 18004KT 9SM OVC011 18/15 A2981 RMK AO2 SLP092 T01830150
KSNA 201253Z 00000KT 8SM OVC010 18/15 A2979 RMK AO2 SLP087 T01830150
KSNA 201153Z AUTO 12004KT 9SM OVC011 18/16 A2977 RMK AO2 SLP081 T01830156 10194 20178 52004
KSNA 201053Z AUTO 09003KT 10SM OVC013 18/16 A2977 RMK AO2 SLP079 T01830156
KSNA 200953Z AUTO 11003KT 9SM OVC011 18/16 A2977 RMK AO2 SLP078 T01780156
KSNA 200915Z AUTO 11003KT 9SM BKN010 18/15 A2977 RMK AO2 T01830150
KSNA 200853Z AUTO 00000KT 10SM CLR 18/15 A2976 RMK AO2 SLP077 T01830150 53003
KSNA 200753Z AUTO 00000KT 10SM CLR 18/15 A2976 RMK AO2 SLP075 T01830150 402500167
KSNA 200653Z AUTO 15005KT 8SM CLR 19/17 A2976 RMK AO2 SLP075 T01890167
KSNA 200553Z 17004KT 8SM FEW012 19/17 A2975 RMK AO2 SLP074 LAST T01940167 10244 20194 50010
KSNA 200453Z 20004KT 9SM FEW012 20/17 A2976 RMK AO2 SLP075 T02000167
KSNA 200353Z 18006KT 9SM FEW012 20/17 A2975 RMK AO2 SLP072 T02000167